Home   Weather   United Kingdom   Stevenage   Past weeks
Flag for United Kingdom

Past Weather in Stevenage, England, United Kingdom — Yesterday and Last 2 Weeks

Currently: 34 °F. Light snow. Passing clouds. (Weather station: Luton Airport, United Kingdom). See more current weather

Past Weather in Stevenage — Graph

°F

Stevenage Temperature Yesterday

Maximum temperature yesterday: 39 °F (at 12:50 pm)
Minimum temperature yesterday: 32 °F (at 1:50 am)
Average temperature yesterday: 35 °F

High & Low Weather Summary for the Past Weeks

 TemperatureHumidityPressure
High55 °F (Nov 18, 12:50 pm)100% (Nov 18, 9:50 pm)30.51 "Hg (Nov 18, 9:50 pm)
Low27 °F (Nov 29, 6:50 am)56% (Nov 28, 1:50 pm)28.94 "Hg (Nov 27, 12:50 am)
Average41 °F87%29.97 "Hg
* Reported Nov 18 2:20 am — Dec 3 2:50 am, Stevenage. Weather by CustomWeather, © 2021

Note: Actual official high and low records may vary slightly from our data, if they occured in-between our weather recording intervals... More about our weather records

Stevenage Weather History for the Previous 24 Hours

Scroll right to see more
 ConditionsComfort  
Time TempWeatherWind HumidityBarometerVisibility
2:50 am
Fri, Dec 3
34 °FSnow flurries. Passing clouds.9 mph87%29.80 "HgN/A
2:20 am34 °FLight snow. Passing clouds.12 mph87%29.83 "Hg3 mi
1:50 am36 °FPassing clouds.16 mph75%29.83 "HgN/A
1:20 am36 °FChilly.9 mph75%29.83 "HgN/A
12:50 am36 °FChilly.9 mph75%29.86 "HgN/A
12:20 am36 °FChilly.8 mph75%29.86 "HgN/A
11:50 pm
Thu, Dec 2
36 °FChilly.12 mph75%29.89 "HgN/A
11:20 pm34 °FChilly.13 mph81%29.89 "HgN/A
10:50 pm34 °FChilly.9 mph81%29.89 "HgN/A
10:20 pm34 °FChilly.9 mph81%29.89 "HgN/A
9:50 pm34 °FChilly.8 mph81%29.89 "HgN/A
9:20 pm34 °FChilly.7 mph81%29.89 "HgN/A
8:50 pm34 °FChilly.8 mph81%29.92 "HgN/A
8:20 pm34 °FChilly.13 mph75%29.92 "HgN/A
7:50 pm34 °FChilly.13 mph75%29.92 "HgN/A
7:20 pm34 °FChilly.12 mph75%29.92 "HgN/A
6:50 pm32 °FChilly.10 mph80%29.95 "HgN/A
6:20 pm32 °FChilly.12 mph80%29.95 "HgN/A
5:50 pm32 °FChilly.10 mph80%29.95 "HgN/A
5:20 pm34 °FChilly.9 mph75%29.95 "HgN/A
4:50 pm34 °FChilly.10 mph75%29.92 "HgN/A
4:20 pm34 °FChilly.12 mph81%29.92 "HgN/A
3:50 pm36 °FChilly.13 mph75%29.92 "HgN/A
3:20 pm37 °FChilly.9 mph70%29.89 "HgN/A
2:50 pm37 °FChilly.12 mph75%29.89 "HgN/A
2:20 pm39 °FChilly.13 mph70%29.89 "HgN/A
1:50 pm39 °FChilly.15 mph70%29.86 "HgN/A
12:50 pm39 °FChilly.16 mph70%29.86 "HgN/A
12:20 pm37 °FChilly.17 mph75%29.86 "HgN/A
11:50 am37 °FChilly.17 mph70%29.86 "HgN/A
11:20 am37 °FChilly.18 mph70%29.86 "HgN/A
10:50 am36 °FPartly sunny.15 mph75%29.86 "HgN/A
10:20 am36 °FChilly.16 mph75%29.83 "HgN/A
9:50 am36 °FChilly.17 mph75%29.83 "HgN/A
9:20 am34 °FChilly.17 mph81%29.83 "HgN/A
8:50 am34 °FChilly.17 mph81%29.80 "HgN/A
8:20 am32 °FChilly.13 mph93%29.80 "HgN/A
7:20 am32 °FChilly.15 mph93%29.80 "HgN/A
6:50 am32 °FPassing clouds.16 mph93%29.77 "HgN/A
6:20 am32 °FPassing clouds.13 mph93%29.77 "HgN/A
5:50 am34 °FLight snow. Passing clouds.14 mph87%29.77 "HgN/A
5:20 am36 °FChilly.12 mph70%29.77 "HgN/A
4:50 am36 °FChilly.12 mph70%29.77 "HgN/A
4:20 am36 °FChilly.15 mph70%29.77 "HgN/A
Weather by CustomWeather, © 2021

See weather overview